Ride Results

Woodstock (15-09-2018)
Ride distance: 80.0 km

Outcomes - Woodstock (15-09-2018)
Division No. of Entries Retired / DNE Completed Withdrawn Ineligible V/O Percentage Completed
HW 13 - 11 - 1 1 84.62%
MW 31 - 22 1 - 8 70.97%
LW 27 - 20 1 1 5 74.07%
JN 14 - 8 1 - 5 57.14%
Totals 85 - 61 3 2 19 71.76%
Results - Woodstock (15-09-2018)
No. Rider Horse Place Time Leg Speeds Total
Km/Hr
H/R bpm
Heavyweight
52 Allan Caslick Littlebanks Muscles 1 5:24:00 14.9, 14.7 14.81 37, 47, 59 (Avg:53)
65 James Ryan Cedar Ridge Hy Regard 2 5:32:00 13.6, 15.3 14.46 38, 48, 47 (Avg:47)
82 Jago Blonde Aloha Desert Thor 3 (BC) 5:45:00 13.0, 14.9 13.91 32, 40, 42 (Avg:41)
98 Alan Lindsay Kintamani Katarina 4 6:37:00 11.9, 12.1 12.09 34, 43, 45 (Avg:44)
101 Harrison Berg Madgwick Fiddat 5 6:40:00 11.5, 12.4 12.00 44, 48, 46 (Avg:47)
78 Rod Mitchell Aloha Tribal Warrior 6 6:50:00 11.8, 11.5 11.71 37, 40, 43 (Avg:41)
55 Keith Sumpner Fonda 7 6:54:00 12.9, 10.4 11.59 32, 41, 48 (Avg:44)
81 Stephen Deering Anzac 8 7:17:00 11.2, 10.7 10.98 41, 48, 57 (Avg:52)
75 Rhys Norman Nimwai 9 7:23:00 10.3, 11.3 10.84 40, 46, 49 (Avg:47)
130 Marty Moran Dane 10 8:40:00 8.8, 9.6 9.23 32, 44, 48 (Avg:46)
80 Sarah Kelly Littlebanks Storm 11 9:00:00 9.4, 8.3 8.89 29, 44, 55 (Avg:49)
72 John Dawson Jon De Le Tison Lame L1 0:00:00 9.9 - 30, 42 (Avg:42)
87 Frank Mollema Littlebanks Crystal Wings Not started P/R 0:00:00 - - 36
Middleweight
131 Ian Curtis Marat MA 1 5:06:00 16.1, 15.2 15.69 32, 47, 51 (Avg:49)
89 Anne Lymbery Baranne Tu-Shay 2 (BC) 5:09:00 13.6, 18.0 15.53 37, 42, 43 (Avg:42)
118 Kristie Taprell Castlebar Belair 3 5:14:00 14.4, 16.2 15.29 34, 41, 45 (Avg:43)
57 Katrina Newitt Wybalena Lodge Prince Harry 4 5:19:00 15.1, 14.9 15.05 44, 46, 40 (Avg:43)
120 Naomi McGaffin Kelkette Park Faris 5 5:56:00 14.4, 12.6 13.48 33, 48, 48 (Avg:48)
54 Sean Griffin Taku 6 6:18:00 12.9, 12.4 12.70 31, 40, 37 (Avg:38)
135 Erica Allan Waugoola Creek Onyx 7 6:37:00 12.4, 11.7 12.09 48, 45, 49 (Avg:47)
115 Caitlin Langley Honey Bee 8 6:41:00 11.0, 13.0 11.97 34, 42, 43 (Avg:42)
102 Jennifer Gilbertson All Aglow At Webbscreek 9 6:53:00 11.9, 11.2 11.62 45, 47, 50 (Avg:48)
67 Leanne Hickson Entourage Era 9 6:53:00 10.9, 12.4 11.62 28, 34, 40 (Avg:37)
66 Jennifer Rogers Razorback Darcy 9 6:53:00 10.9, 12.4 11.62 36, 36, 47 (Avg:41)
70 April Newman Jon De Le Hanna 12 7:23:00 9.9, 11.9 10.84 36, 44, 45 (Avg:44)
88 Tayla Hadzi Oso Dakota 13 7:41:00 10.1, 10.7 10.41 42, 45, 52 (Avg:48)
92 Laura Montmasson Oso Lu Lu 13 7:41:00 10.1, 10.7 10.41 35, 40, 46 (Avg:43)
106 Ben Hudson Davlyn Park Seiko 15 8:07:00 9.0, 10.7 9.86 32, 48, 50 (Avg:49)
64 Victoria Bonham Bridle Track Bogart 16 8:10:00 9.6, 9.9 9.80 40, 38, 48 (Avg:43)
63 Chris Noonan Sharaul Lucifaa 16 8:10:00 9.6, 9.9 9.80 32, 40, 45 (Avg:42)
77 Bruce Carter Mitanni Hairan 18 8:24:00 9.5, 9.5 9.52 36, 47, 50 (Avg:48)
126 Mark Norton Zemzem Raya 18 8:24:00 9.5, 9.4 9.52 35, 46, 44 (Avg:45)
62 John Symons Bell Barry Blue Diamond 18 8:24:00 9.9, 9.1 9.52 36, 41, 44 (Avg:42)
129 Bev Turner Coco Chanel 21 8:40:00 8.8, 9.6 9.23 37, 46, 46 (Avg:46)
79 Rebecca Lees Asiya Contessa 22 9:00:00 9.4, 8.3 8.89 32, 44, 44 (Avg:44)
116 Lauren Roper Wickwood Badira Lame L2 0:00:00 11.0, 13.0 - 50, 41, 42 (Avg:41)
123 York Shepheard Currowan Apollo Lame L2 0:00:00 18.7, 17.7 - 36, 42, 51 (Avg:46)
61 Mette Sutton Tuldar Firefly Lame L2 0:00:00 10.9, 7.9 - 42, 48, 45 (Avg:46)
51 Brett Willis Spirit Lame L2 0:00:00 14.5, 12.6 - 52, 52, 43 (Avg:47)
68 Peter Bice Anijoa Anna Lame L1 0:00:00 10.5 - 37, 40 (Avg:40)
94 Jo Davis Jamal Desert Mist Lame L1 0:00:00 12.4 - 32, 42 (Avg:42)
100 Chrisovl Morley Rocky Creek Sioux King Lame L1 0:00:00 9.5 - 36, 38 (Avg:38)
59 Nicole Smith Malvern Harmony Withdrawn L1 0:00:00 - - 34, 44, 38 (Avg:41)
58 Kristie Wright Cooroora Allyjah Heart Rate L1 0:00:00 15.1 - 40, 65 (Avg:65)
Lightweight
125 Gertraud Norton Scarlet Oaks Amica 1 (BC) 4:23:00 18.7, 17.7 18.25 36, 47, 49 (Avg:48)
133 Fia Hasko-Stewart Blake's Heaven Venus 2 5:06:00 16.1, 15.2 15.69 32, 44, 43 (Avg:43)
85 Clare Fleming Warrawee Gay Paree 3 5:45:00 13.0, 14.9 13.91 34, 37, 48 (Avg:42)
93 Emma Dimech Oso Bettina 4 5:48:00 12.9, 14.7 13.79 35, 49, 51 (Avg:50)
83 Leanne Holz Orizhan 5 5:55:00 14.5, 12.6 13.52 39, 48, 47 (Avg:47)
124 Jenny Shepheard Currowan Maximus 6 6:19:00 12.9, 12.3 12.66 35, 37, 40 (Avg:38)
96 Kim Noble Assagai 7 6:29:00 11.6, 13.1 12.34 36, 48, 48 (Avg:48)
99 Courtney Chapman Kintamani Kimbra 8 6:37:00 11.9, 12.1 12.09 38, 46, 51 (Avg:48)
74 Sorsha Stuart-Rokvic Alzarah 8 6:37:00 11.5, 12.6 12.09 38, 45, 50 (Avg:47)
117 Noni Seagrim Coolinda Park Words of Wisdom 10 6:41:00 11.0, 13.0 11.97 47, 47, 50 (Avg:48)
132 Talea Hasko-Stewart Blake's Heaven Bombora 11 6:42:00 10.6, 13.5 11.94 36, 43, 47 (Avg:45)
73 Dianne Luker Sallydale Wings on Fire 11 6:42:00 14.2, 10.2 11.94 35, 47, 48 (Avg:47)
56 Sue Todd Shakari Bear 13 6:53:00 11.9, 11.2 11.62 38, 46, 50 (Avg:48)
91 Victoria Bice Oso Enigma 14 7:41:00 10.1, 10.7 10.41 36, 47, 48 (Avg:47)
90 Tahlia Franke Oso En Garde 14 7:41:00 10.1, 10.7 10.41 40, 43, 44 (Avg:43)
110 Laura Douglas Box Hill Cooee Legend 16 8:07:00 9.0, 10.8 9.86 32, 40, 43 (Avg:41)
108 Shannon Fogg A'Landell Jonesy 16 8:07:00 9.0, 10.8 9.86 35, 45, 51 (Avg:48)
107 Allix Jones Razorback Sophia 16 8:07:00 9.0, 10.8 9.86 31, 38, 43 (Avg:40)
76 Vicki Mathew Penwisk Sharmarra 19 8:24:00 9.5, 9.5 9.52 32, 44, 47 (Avg:45)
103 Matthew Dunne Nugget 20 8:35:00 9.0, 9.6 9.32 32, 36, 47 (Avg:41)
122 Melissa McCoullough Forbes View Sienna Metabolics moderate L2 0:00:00 15.3, 15.6 - 33, 44, 50 (Avg:47)
109 Elizabeth Moir Bullio Duchess Lame L2 0:00:00 9.0, 10.8 - 29, 34, 40 (Avg:37)
60 Hannah O'Neill Lydia Te Lame L1 0:00:00 12.9 - 34, 47 (Avg:47)
114 Heather Parry Coolinda Park Sheeza Doll Lame L1 0:00:00 11.0 - 33, 36 (Avg:36)
71 Susan Woodward Jon De Le Storm Lame L1 0:00:00 9.9 - 36, 39 (Avg:39)
112 Julie Hooper A'Landell Enigma Withdrawn P/R 0:00:00 - - 34, 38 (Avg:38)
86 Monique Milton Littlebanks Troubadour Not started P/R 0:00:00 - - 42
Junior
95 Levi Robinson Karumba Beamish 1 (BC) 5:09:00 15.3, 15.6 15.53 30, 41, 44 (Avg:42)
119 Liberty Mercer Temar Mahavee 2 5:14:00 14.4, 16.2 15.29 36, 44, 46 (Avg:45)
84 Scarlet McQueen Flemingo Bomsaway 3 5:45:00 13.0, 14.9 13.91 30, 36, 39 (Avg:37)
121 Kaitlyn Mercieca JRK Spyder 4 6:37:00 11.5, 12.6 12.09 36, 42, 43 (Avg:42)
111 Tahnaya Mercieca Matta Mia Zena 4 6:37:00 11.5, 12.6 12.09 39, 42, 51 (Avg:46)
105 Emma Cole Chelleason Challerisma Gold 6 8:07:00 9.0, 10.8 9.86 34, 40, 44 (Avg:42)
127 Brooke Luthy Mystical Knight 7 8:49:00 8.9, 9.1 9.07 32, 44, 44 (Avg:44)
128 Zoe Luthy Mystical Horizon 7 8:49:00 8.9, 9.1 9.07 42, 39, 50 (Avg:44)
69 Alexander Bice Silverbow Taliah Lame L2 0:00:00 10.5, 11.8 - 34, 46, 57 (Avg:51)
104 Lukas Dunne Holly Lame L2 0:00:00 9.0, 9.6 - 38, 40, 41 (Avg:40)
134 Celia Hodgson Blake's Heaven Adventuress Lame L1 0:00:00 9.3 - 35, 46 (Avg:46)
97 Alison Noble Spelldancer Lame L1 0:00:00 11.6 - 36, 47 (Avg:47)
113 Madison Hooper Khalidah Tasneem Withdrawn P/R 0:00:00 - - 34, 36 (Avg:36)
53 Sophie Ramsay Autumnight Goldmine Metabolics P/R 0:00:00 - - 36